sensor_id;sensor_type;location;lat;lon;timestamp;P1;durP1;ratioP1;P2;durP2;ratioP2
21743;SDS011;11034;48.556;9.342;2023-04-24T00:01:42;1.35;;;0.60;;
21743;SDS011;11034;48.556;9.342;2023-04-24T00:04:10;3.50;;;1.00;;
21743;SDS011;11034;48.556;9.342;2023-04-24T00:06:40;1.52;;;0.57;;
21743;SDS011;11034;48.556;9.342;2023-04-24T00:09:09;1.90;;;0.80;;
21743;SDS011;11034;48.556;9.342;2023-04-24T00:11:37;0.52;;;0.50;;
21743;SDS011;11034;48.556;9.342;2023-04-24T00:14:07;1.02;;;0.50;;
21743;SDS011;11034;48.556;9.342;2023-04-24T00:16:35;1.00;;;0.60;;
21743;SDS011;11034;48.556;9.342;2023-04-24T00:19:03;2.33;;;0.52;;
21743;SDS011;11034;48.556;9.342;2023-04-24T00:21:32;1.23;;;0.60;;
21743;SDS011;11034;48.556;9.342;2023-04-24T00:24:00;2.00;;;0.40;;
21743;SDS011;11034;48.556;9.342;2023-04-24T00:26:28;1.48;;;0.50;;
21743;SDS011;11034;48.556;9.342;2023-04-24T00:28:56;1.15;;;0.43;;
21743;SDS011;11034;48.556;9.342;2023-04-24T00:31:25;2.42;;;0.77;;
21743;SDS011;11034;48.556;9.342;2023-04-24T00:33:53;3.22;;;0.52;;
21743;SDS011;11034;48.556;9.342;2023-04-24T00:36:21;1.77;;;0.77;;
21743;SDS011;11034;48.556;9.342;2023-04-24T00:38:49;1.65;;;0.50;;
21743;SDS011;11034;48.556;9.342;2023-04-24T00:41:17;1.35;;;0.50;;
21743;SDS011;11034;48.556;9.342;2023-04-24T00:43:45;2.33;;;0.70;;
21743;SDS011;11034;48.556;9.342;2023-04-24T00:46:14;1.33;;;0.60;;
21743;SDS011;11034;48.556;9.342;2023-04-24T00:48:44;1.70;;;0.50;;
21743;SDS011;11034;48.556;9.342;2023-04-24T00:51:12;2.00;;;0.60;;
21743;SDS011;11034;48.556;9.342;2023-04-24T00:53:41;2.45;;;0.63;;
21743;SDS011;11034;48.556;9.342;2023-04-24T00:56:09;2.33;;;0.70;;
21743;SDS011;11034;48.556;9.342;2023-04-24T00:58:37;3.70;;;0.88;;
21743;SDS011;11034;48.556;9.342;2023-04-24T01:01:06;0.98;;;0.60;;
21743;SDS011;11034;48.556;9.342;2023-04-24T01:03:34;2.53;;;0.60;;
21743;SDS011;11034;48.556;9.342;2023-04-24T01:06:05;2.60;;;0.90;;
21743;SDS011;11034;48.556;9.342;2023-04-24T01:08:34;1.05;;;0.60;;
21743;SDS011;11034;48.556;9.342;2023-04-24T01:11:04;1.67;;;0.70;;
21743;SDS011;11034;48.556;9.342;2023-04-24T01:13:32;2.72;;;0.80;;
21743;SDS011;11034;48.556;9.342;2023-04-24T01:16:01;1.13;;;0.50;;
21743;SDS011;11034;48.556;9.342;2023-04-24T01:18:29;1.77;;;0.65;;
21743;SDS011;11034;48.556;9.342;2023-04-24T01:20:59;1.30;;;0.50;;
21743;SDS011;11034;48.556;9.342;2023-04-24T01:23:31;1.63;;;0.60;;
21743;SDS011;11034;48.556;9.342;2023-04-24T01:25:59;0.80;;;0.50;;
21743;SDS011;11034;48.556;9.342;2023-04-24T01:28:27;1.55;;;0.68;;
21743;SDS011;11034;48.556;9.342;2023-04-24T01:30:55;2.05;;;0.68;;
21743;SDS011;11034;48.556;9.342;2023-04-24T01:33:23;1.50;;;0.60;;
21743;SDS011;11034;48.556;9.342;2023-04-24T01:35:51;1.58;;;0.80;;
21743;SDS011;11034;48.556;9.342;2023-04-24T01:38:19;1.02;;;0.63;;
21743;SDS011;11034;48.556;9.342;2023-04-24T01:40:49;2.30;;;0.70;;
21743;SDS011;11034;48.556;9.342;2023-04-24T01:43:17;3.03;;;0.80;;
21743;SDS011;11034;48.556;9.342;2023-04-24T01:45:45;1.77;;;0.70;;
21743;SDS011;11034;48.556;9.342;2023-04-24T01:48:13;4.03;;;1.00;;
21743;SDS011;11034;48.556;9.342;2023-04-24T01:50:41;1.90;;;0.68;;
21743;SDS011;11034;48.556;9.342;2023-04-24T01:53:09;1.48;;;0.88;;
21743;SDS011;11034;48.556;9.342;2023-04-24T01:55:37;3.40;;;0.60;;
21743;SDS011;11034;48.556;9.342;2023-04-24T01:58:07;1.27;;;0.75;;
21743;SDS011;11034;48.556;9.342;2023-04-24T02:00:35;3.33;;;0.90;;
21743;SDS011;11034;48.556;9.342;2023-04-24T02:03:03;1.80;;;0.90;;
21743;SDS011;11034;48.556;9.342;2023-04-24T02:05:32;2.03;;;0.70;;
21743;SDS011;11034;48.556;9.342;2023-04-24T02:08:00;2.10;;;0.73;;
21743;SDS011;11034;48.556;9.342;2023-04-24T02:10:28;2.05;;;0.90;;
21743;SDS011;11034;48.556;9.342;2023-04-24T02:12:56;1.80;;;1.02;;
21743;SDS011;11034;48.556;9.342;2023-04-24T02:15:27;2.65;;;0.80;;
21743;SDS011;11034;48.556;9.342;2023-04-24T02:17:56;0.93;;;0.68;;
21743;SDS011;11034;48.556;9.342;2023-04-24T02:20:24;2.03;;;0.88;;
21743;SDS011;11034;48.556;9.342;2023-04-24T02:22:52;1.65;;;0.80;;
21743;SDS011;11034;48.556;9.342;2023-04-24T02:25:20;1.50;;;0.80;;
21743;SDS011;11034;48.556;9.342;2023-04-24T02:27:48;3.60;;;0.88;;
21743;SDS011;11034;48.556;9.342;2023-04-24T02:30:16;0.85;;;0.70;;
21743;SDS011;11034;48.556;9.342;2023-04-24T02:32:46;2.28;;;0.70;;
21743;SDS011;11034;48.556;9.342;2023-04-24T02:35:14;2.50;;;1.00;;
21743;SDS011;11034;48.556;9.342;2023-04-24T02:37:42;3.00;;;1.00;;
21743;SDS011;11034;48.556;9.342;2023-04-24T02:40:10;2.03;;;0.90;;
21743;SDS011;11034;48.556;9.342;2023-04-24T02:42:38;1.35;;;0.70;;
21743;SDS011;11034;48.556;9.342;2023-04-24T02:45:06;2.97;;;0.85;;
21743;SDS011;11034;48.556;9.342;2023-04-24T02:47:35;1.10;;;0.95;;
21743;SDS011;11034;48.556;9.342;2023-04-24T02:50:05;1.92;;;0.70;;
21743;SDS011;11034;48.556;9.342;2023-04-24T02:52:34;1.48;;;0.77;;
21743;SDS011;11034;48.556;9.342;2023-04-24T02:55:02;2.00;;;0.70;;
21743;SDS011;11034;48.556;9.342;2023-04-24T02:57:31;2.50;;;0.80;;
21743;SDS011;11034;48.556;9.342;2023-04-24T02:59:59;3.13;;;0.70;;
21743;SDS011;11034;48.556;9.342;2023-04-24T03:02:27;2.30;;;0.90;;
21743;SDS011;11034;48.556;9.342;2023-04-24T03:04:55;1.50;;;0.70;;
21743;SDS011;11034;48.556;9.342;2023-04-24T03:07:24;1.92;;;0.90;;
21743;SDS011;11034;48.556;9.342;2023-04-24T03:09:52;2.35;;;1.10;;
21743;SDS011;11034;48.556;9.342;2023-04-24T03:12:20;0.70;;;0.70;;
21743;SDS011;11034;48.556;9.342;2023-04-24T03:14:50;2.53;;;0.65;;
21743;SDS011;11034;48.556;9.342;2023-04-24T03:17:18;1.30;;;0.80;;
21743;SDS011;11034;48.556;9.342;2023-04-24T03:19:45;2.38;;;0.90;;
21743;SDS011;11034;48.556;9.342;2023-04-24T03:22:13;1.02;;;0.60;;
21743;SDS011;11034;48.556;9.342;2023-04-24T03:24:43;2.50;;;0.90;;
21743;SDS011;11034;48.556;9.342;2023-04-24T03:27:11;1.85;;;0.95;;
21743;SDS011;11034;48.556;9.342;2023-04-24T03:29:39;1.58;;;0.82;;
21743;SDS011;11034;48.556;9.342;2023-04-24T03:32:07;2.35;;;0.80;;
21743;SDS011;11034;48.556;9.342;2023-04-24T03:34:35;2.53;;;1.00;;
21743;SDS011;11034;48.556;9.342;2023-04-24T03:37:03;2.40;;;0.82;;
21743;SDS011;11034;48.556;9.342;2023-04-24T03:39:31;3.95;;;0.80;;
21743;SDS011;11034;48.556;9.342;2023-04-24T03:42:00;3.40;;;0.80;;
21743;SDS011;11034;48.556;9.342;2023-04-24T03:44:28;2.13;;;0.90;;
21743;SDS011;11034;48.556;9.342;2023-04-24T03:46:57;2.30;;;0.90;;
21743;SDS011;11034;48.556;9.342;2023-04-24T03:49:25;3.65;;;1.05;;
21743;SDS011;11034;48.556;9.342;2023-04-24T03:51:53;2.95;;;0.93;;
21743;SDS011;11034;48.556;9.342;2023-04-24T03:54:21;1.33;;;0.93;;
21743;SDS011;11034;48.556;9.342;2023-04-24T03:56:49;3.13;;;1.02;;
21743;SDS011;11034;48.556;9.342;2023-04-24T03:59:19;1.80;;;0.70;;
21743;SDS011;11034;48.556;9.342;2023-04-24T04:01:47;1.23;;;0.65;;
21743;SDS011;11034;48.556;9.342;2023-04-24T04:04:15;1.60;;;0.68;;
21743;SDS011;11034;48.556;9.342;2023-04-24T04:06:43;2.42;;;0.77;;
21743;SDS011;11034;48.556;9.342;2023-04-24T04:09:12;2.55;;;0.90;;
21743;SDS011;11034;48.556;9.342;2023-04-24T04:11:40;3.20;;;1.00;;
21743;SDS011;11034;48.556;9.342;2023-04-24T04:14:08;1.98;;;0.90;;
21743;SDS011;11034;48.556;9.342;2023-04-24T04:16:37;1.02;;;0.77;;
21743;SDS011;11034;48.556;9.342;2023-04-24T04:19:06;1.83;;;0.80;;
21743;SDS011;11034;48.556;9.342;2023-04-24T04:21:34;3.97;;;0.82;;
21743;SDS011;11034;48.556;9.342;2023-04-24T04:24:02;1.77;;;0.70;;
21743;SDS011;11034;48.556;9.342;2023-04-24T04:26:31;1.55;;;0.73;;
21743;SDS011;11034;48.556;9.342;2023-04-24T04:29:00;3.50;;;0.77;;
21743;SDS011;11034;48.556;9.342;2023-04-24T04:31:28;2.08;;;0.60;;
21743;SDS011;11034;48.556;9.342;2023-04-24T04:33:58;0.80;;;0.60;;
21743;SDS011;11034;48.556;9.342;2023-04-24T04:36:27;1.50;;;0.70;;
21743;SDS011;11034;48.556;9.342;2023-04-24T04:38:56;1.02;;;0.90;;
21743;SDS011;11034;48.556;9.342;2023-04-24T04:41:25;4.90;;;0.90;;
21743;SDS011;11034;48.556;9.342;2023-04-24T04:43:53;1.92;;;0.80;;
21743;SDS011;11034;48.556;9.342;2023-04-24T04:46:24;0.77;;;0.70;;
21743;SDS011;11034;48.556;9.342;2023-04-24T04:48:53;1.55;;;0.73;;
21743;SDS011;11034;48.556;9.342;2023-04-24T04:51:24;1.60;;;0.60;;
21743;SDS011;11034;48.556;9.342;2023-04-24T04:53:52;3.03;;;0.80;;
21743;SDS011;11034;48.556;9.342;2023-04-24T04:56:20;4.05;;;0.90;;
21743;SDS011;11034;48.556;9.342;2023-04-24T04:58:48;3.17;;;1.35;;
21743;SDS011;11034;48.556;9.342;2023-04-24T05:01:16;7.22;;;1.48;;
21743;SDS011;11034;48.556;9.342;2023-04-24T05:03:44;3.42;;;1.55;;
21743;SDS011;11034;48.556;9.342;2023-04-24T05:06:12;2.92;;;1.60;;
21743;SDS011;11034;48.556;9.342;2023-04-24T05:08:42;4.20;;;1.40;;
21743;SDS011;11034;48.556;9.342;2023-04-24T05:11:10;2.65;;;1.27;;
21743;SDS011;11034;48.556;9.342;2023-04-24T05:13:38;4.50;;;1.60;;
21743;SDS011;11034;48.556;9.342;2023-04-24T05:16:07;3.42;;;1.27;;
21743;SDS011;11034;48.556;9.342;2023-04-24T05:18:36;2.25;;;1.10;;
21743;SDS011;11034;48.556;9.342;2023-04-24T05:21:04;2.97;;;1.20;;
21743;SDS011;11034;48.556;9.342;2023-04-24T05:23:32;3.78;;;1.30;;
21743;SDS011;11034;48.556;9.342;2023-04-24T05:26:01;3.88;;;1.60;;
21743;SDS011;11034;48.556;9.342;2023-04-24T05:28:32;4.22;;;1.40;;
21743;SDS011;11034;48.556;9.342;2023-04-24T05:31:02;4.55;;;1.63;;
21743;SDS011;11034;48.556;9.342;2023-04-24T05:33:30;5.05;;;1.88;;
21743;SDS011;11034;48.556;9.342;2023-04-24T05:35:58;2.70;;;1.42;;
21743;SDS011;11034;48.556;9.342;2023-04-24T05:38:26;3.75;;;1.95;;
21743;SDS011;11034;48.556;9.342;2023-04-24T05:40:54;3.38;;;1.50;;
21743;SDS011;11034;48.556;9.342;2023-04-24T05:43:24;2.30;;;1.70;;
21743;SDS011;11034;48.556;9.342;2023-04-24T05:45:52;2.72;;;1.50;;
21743;SDS011;11034;48.556;9.342;2023-04-24T05:48:20;5.35;;;1.98;;
21743;SDS011;11034;48.556;9.342;2023-04-24T05:50:49;3.05;;;1.92;;
21743;SDS011;11034;48.556;9.342;2023-04-24T05:53:18;2.35;;;1.92;;
21743;SDS011;11034;48.556;9.342;2023-04-24T05:55:47;3.42;;;1.70;;
21743;SDS011;11034;48.556;9.342;2023-04-24T05:58:15;2.75;;;1.80;;
21743;SDS011;11034;48.556;9.342;2023-04-24T06:00:44;2.63;;;1.63;;
21743;SDS011;11034;48.556;9.342;2023-04-24T06:03:14;2.28;;;1.70;;
21743;SDS011;11034;48.556;9.342;2023-04-24T06:05:42;2.35;;;1.80;;
21743;SDS011;11034;48.556;9.342;2023-04-24T06:08:10;2.13;;;1.73;;
21743;SDS011;11034;48.556;9.342;2023-04-24T06:10:38;3.70;;;1.70;;
21743;SDS011;11034;48.556;9.342;2023-04-24T06:13:06;3.33;;;1.88;;
21743;SDS011;11034;48.556;9.342;2023-04-24T06:15:34;2.65;;;1.60;;
21743;SDS011;11034;48.556;9.342;2023-04-24T06:18:04;3.50;;;1.60;;
21743;SDS011;11034;48.556;9.342;2023-04-24T06:20:32;4.82;;;1.80;;
21743;SDS011;11034;48.556;9.342;2023-04-24T06:23:00;2.30;;;1.55;;
21743;SDS011;11034;48.556;9.342;2023-04-24T06:25:28;2.13;;;1.45;;
21743;SDS011;11034;48.556;9.342;2023-04-24T06:27:56;3.22;;;1.52;;
21743;SDS011;11034;48.556;9.342;2023-04-24T06:30:24;3.50;;;1.67;;
21743;SDS011;11034;48.556;9.342;2023-04-24T06:32:53;2.67;;;1.48;;
21743;SDS011;11034;48.556;9.342;2023-04-24T06:35:32;1.77;;;1.20;;
21743;SDS011;11034;48.556;9.342;2023-04-24T06:38:00;2.72;;;1.40;;
21743;SDS011;11034;48.556;9.342;2023-04-24T06:40:28;3.40;;;1.50;;
21743;SDS011;11034;48.556;9.342;2023-04-24T06:42:56;1.83;;;1.30;;
21743;SDS011;11034;48.556;9.342;2023-04-24T06:45:26;1.88;;;1.20;;
21743;SDS011;11034;48.556;9.342;2023-04-24T06:47:54;2.13;;;1.10;;
21743;SDS011;11034;48.556;9.342;2023-04-24T06:50:22;1.48;;;1.27;;
21743;SDS011;11034;48.556;9.342;2023-04-24T06:52:51;3.00;;;1.30;;
21743;SDS011;11034;48.556;9.342;2023-04-24T06:55:19;2.83;;;1.13;;
21743;SDS011;11034;48.556;9.342;2023-04-24T06:57:47;1.50;;;1.00;;
21743;SDS011;11034;48.556;9.342;2023-04-24T07:00:16;1.35;;;1.00;;
21743;SDS011;11034;48.556;9.342;2023-04-24T07:02:44;1.50;;;1.20;;
21743;SDS011;11034;48.556;9.342;2023-04-24T07:05:12;1.35;;;1.25;;
21743;SDS011;11034;48.556;9.342;2023-04-24T07:07:41;1.35;;;1.02;;
21743;SDS011;11034;48.556;9.342;2023-04-24T07:10:10;1.38;;;1.27;;
21743;SDS011;11034;48.556;9.342;2023-04-24T07:12:39;3.00;;;1.73;;
21743;SDS011;11034;48.556;9.342;2023-04-24T07:15:07;1.95;;;1.45;;
21743;SDS011;11034;48.556;9.342;2023-04-24T07:17:36;1.90;;;1.40;;
21743;SDS011;11034;48.556;9.342;2023-04-24T07:20:09;2.30;;;1.50;;
21743;SDS011;11034;48.556;9.342;2023-04-24T07:22:38;4.15;;;1.85;;
21743;SDS011;11034;48.556;9.342;2023-04-24T07:25:07;3.33;;;1.40;;
21743;SDS011;11034;48.556;9.342;2023-04-24T07:27:36;2.70;;;1.52;;
21743;SDS011;11034;48.556;9.342;2023-04-24T07:30:05;2.00;;;1.50;;
21743;SDS011;11034;48.556;9.342;2023-04-24T07:32:34;2.75;;;1.70;;
21743;SDS011;11034;48.556;9.342;2023-04-24T07:35:02;2.33;;;1.63;;
21743;SDS011;11034;48.556;9.342;2023-04-24T07:37:31;2.50;;;1.52;;
21743;SDS011;11034;48.556;9.342;2023-04-24T07:39:59;7.75;;;2.20;;
21743;SDS011;11034;48.556;9.342;2023-04-24T07:42:27;2.63;;;1.98;;
21743;SDS011;11034;48.556;9.342;2023-04-24T07:44:57;3.35;;;1.95;;
21743;SDS011;11034;48.556;9.342;2023-04-24T07:47:26;2.90;;;1.65;;
21743;SDS011;11034;48.556;9.342;2023-04-24T07:49:54;2.33;;;1.73;;
21743;SDS011;11034;48.556;9.342;2023-04-24T07:52:23;2.05;;;1.80;;
21743;SDS011;11034;48.556;9.342;2023-04-24T07:54:51;2.13;;;1.70;;
21743;SDS011;11034;48.556;9.342;2023-04-24T07:57:24;2.05;;;1.40;;
21743;SDS011;11034;48.556;9.342;2023-04-24T07:59:53;2.90;;;1.45;;
21743;SDS011;11034;48.556;9.342;2023-04-24T08:02:23;3.90;;;1.40;;
21743;SDS011;11034;48.556;9.342;2023-04-24T08:04:53;2.92;;;1.50;;
21743;SDS011;11034;48.556;9.342;2023-04-24T08:07:24;3.45;;;1.23;;
21743;SDS011;11034;48.556;9.342;2023-04-24T08:09:52;2.20;;;1.67;;
21743;SDS011;11034;48.556;9.342;2023-04-24T08:12:20;2.65;;;1.30;;
21743;SDS011;11034;48.556;9.342;2023-04-24T08:14:48;2.75;;;1.40;;
21743;SDS011;11034;48.556;9.342;2023-04-24T08:17:16;2.30;;;1.40;;
21743;SDS011;11034;48.556;9.342;2023-04-24T08:19:46;2.67;;;1.35;;
21743;SDS011;11034;48.556;9.342;2023-04-24T08:22:14;1.77;;;1.58;;
21743;SDS011;11034;48.556;9.342;2023-04-24T08:24:42;2.33;;;1.50;;
21743;SDS011;11034;48.556;9.342;2023-04-24T08:27:10;3.08;;;1.30;;
21743;SDS011;11034;48.556;9.342;2023-04-24T08:29:38;3.53;;;1.58;;
21743;SDS011;11034;48.556;9.342;2023-04-24T08:32:06;2.78;;;1.58;;
21743;SDS011;11034;48.556;9.342;2023-04-24T08:34:38;3.90;;;1.63;;
21743;SDS011;11034;48.556;9.342;2023-04-24T08:37:07;3.17;;;1.55;;
21743;SDS011;11034;48.556;9.342;2023-04-24T08:39:35;2.58;;;1.83;;
21743;SDS011;11034;48.556;9.342;2023-04-24T08:42:04;4.47;;;1.80;;
21743;SDS011;11034;48.556;9.342;2023-04-24T08:44:34;2.83;;;1.52;;
21743;SDS011;11034;48.556;9.342;2023-04-24T08:47:03;1.77;;;1.42;;
21743;SDS011;11034;48.556;9.342;2023-04-24T08:49:32;3.03;;;1.50;;
21743;SDS011;11034;48.556;9.342;2023-04-24T08:52:01;5.07;;;1.60;;
21743;SDS011;11034;48.556;9.342;2023-04-24T08:54:31;3.10;;;1.30;;
21743;SDS011;11034;48.556;9.342;2023-04-24T08:57:01;2.95;;;1.80;;
21743;SDS011;11034;48.556;9.342;2023-04-24T08:59:31;2.90;;;1.70;;
21743;SDS011;11034;48.556;9.342;2023-04-24T09:01:59;4.82;;;1.88;;
21743;SDS011;11034;48.556;9.342;2023-04-24T09:04:28;2.67;;;1.50;;
21743;SDS011;11034;48.556;9.342;2023-04-24T09:06:58;2.47;;;1.77;;
21743;SDS011;11034;48.556;9.342;2023-04-24T09:09:26;4.07;;;1.70;;
21743;SDS011;11034;48.556;9.342;2023-04-24T09:11:58;2.65;;;1.60;;
21743;SDS011;11034;48.556;9.342;2023-04-24T09:14:28;1.95;;;1.50;;
21743;SDS011;11034;48.556;9.342;2023-04-24T09:16:58;2.58;;;1.52;;
21743;SDS011;11034;48.556;9.342;2023-04-24T09:19:26;3.53;;;1.50;;
21743;SDS011;11034;48.556;9.342;2023-04-24T09:21:54;2.67;;;1.13;;
21743;SDS011;11034;48.556;9.342;2023-04-24T09:24:22;2.42;;;1.60;;
21743;SDS011;11034;48.556;9.342;2023-04-24T09:26:55;3.55;;;1.30;;
21743;SDS011;11034;48.556;9.342;2023-04-24T09:29:26;2.88;;;1.45;;
21743;SDS011;11034;48.556;9.342;2023-04-24T09:31:54;3.80;;;1.40;;
21743;SDS011;11034;48.556;9.342;2023-04-24T09:34:22;1.60;;;1.10;;
21743;SDS011;11034;48.556;9.342;2023-04-24T09:36:51;2.42;;;1.23;;
21743;SDS011;11034;48.556;9.342;2023-04-24T09:39:20;2.35;;;1.48;;
21743;SDS011;11034;48.556;9.342;2023-04-24T09:41:49;3.45;;;1.55;;
21743;SDS011;11034;48.556;9.342;2023-04-24T09:44:18;3.17;;;1.50;;
21743;SDS011;11034;48.556;9.342;2023-04-24T09:46:50;4.55;;;1.90;;
21743;SDS011;11034;48.556;9.342;2023-04-24T09:49:22;2.95;;;1.23;;
21743;SDS011;11034;48.556;9.342;2023-04-24T09:51:51;2.05;;;1.30;;
21743;SDS011;11034;48.556;9.342;2023-04-24T09:54:20;1.90;;;1.30;;
21743;SDS011;11034;48.556;9.342;2023-04-24T09:56:49;1.75;;;1.27;;
21743;SDS011;11034;48.556;9.342;2023-04-24T09:59:18;1.63;;;1.25;;
21743;SDS011;11034;48.556;9.342;2023-04-24T10:01:47;4.25;;;1.60;;
21743;SDS011;11034;48.556;9.342;2023-04-24T10:04:17;2.78;;;1.50;;
21743;SDS011;11034;48.556;9.342;2023-04-24T10:06:47;1.60;;;1.40;;
21743;SDS011;11034;48.556;9.342;2023-04-24T10:09:16;3.38;;;1.65;;
21743;SDS011;11034;48.556;9.342;2023-04-24T10:11:45;2.80;;;1.75;;
21743;SDS011;11034;48.556;9.342;2023-04-24T10:14:15;4.80;;;1.42;;
21743;SDS011;11034;48.556;9.342;2023-04-24T10:16:44;3.00;;;1.50;;
21743;SDS011;11034;48.556;9.342;2023-04-24T10:19:14;3.50;;;1.50;;
21743;SDS011;11034;48.556;9.342;2023-04-24T10:21:46;1.90;;;1.50;;
21743;SDS011;11034;48.556;9.342;2023-04-24T10:24:14;6.00;;;1.48;;
21743;SDS011;11034;48.556;9.342;2023-04-24T10:26:43;1.88;;;1.23;;
21743;SDS011;11034;48.556;9.342;2023-04-24T10:29:12;2.83;;;1.40;;
21743;SDS011;11034;48.556;9.342;2023-04-24T10:31:41;3.10;;;1.50;;
21743;SDS011;11034;48.556;9.342;2023-04-24T10:34:12;2.63;;;1.42;;
21743;SDS011;11034;48.556;9.342;2023-04-24T10:36:42;3.50;;;1.35;;
21743;SDS011;11034;48.556;9.342;2023-04-24T10:39:16;3.38;;;1.50;;
21743;SDS011;11034;48.556;9.342;2023-04-24T10:41:53;2.40;;;1.50;;
21743;SDS011;11034;48.556;9.342;2023-04-24T10:44:23;3.70;;;1.35;;
21743;SDS011;11034;48.556;9.342;2023-04-24T10:46:53;2.63;;;1.50;;
21743;SDS011;11034;48.556;9.342;2023-04-24T10:49:27;2.13;;;1.23;;
21743;SDS011;11034;48.556;9.342;2023-04-24T10:52:01;2.60;;;1.08;;
21743;SDS011;11034;48.556;9.342;2023-04-24T10:54:34;1.80;;;1.00;;
21743;SDS011;11034;48.556;9.342;2023-04-24T11:00:10;2.70;;;1.02;;
21743;SDS011;11034;48.556;9.342;2023-04-24T11:02:42;2.03;;;1.05;;
21743;SDS011;11034;48.556;9.342;2023-04-24T11:05:17;2.85;;;1.00;;
21743;SDS011;11034;48.556;9.342;2023-04-24T11:10:45;1.40;;;1.00;;
21743;SDS011;11034;48.556;9.342;2023-04-24T11:13:20;1.48;;;1.00;;
21743;SDS011;11034;48.556;9.342;2023-04-24T11:18:42;1.50;;;1.00;;
21743;SDS011;11034;48.556;9.342;2023-04-24T11:21:17;3.47;;;1.25;;
21743;SDS011;11034;48.556;9.342;2023-04-24T11:23:47;3.08;;;1.13;;
21743;SDS011;11034;48.556;9.342;2023-04-24T11:26:17;2.08;;;1.00;;
21743;SDS011;11034;48.556;9.342;2023-04-24T11:28:46;1.75;;;1.13;;
21743;SDS011;11034;48.556;9.342;2023-04-24T11:31:34;2.45;;;1.30;;
21743;SDS011;11034;48.556;9.342;2023-04-24T11:34:09;3.47;;;1.52;;
21743;SDS011;11034;48.556;9.342;2023-04-24T11:36:39;2.63;;;1.20;;
21743;SDS011;11034;48.556;9.342;2023-04-24T11:39:09;1.35;;;1.05;;
21743;SDS011;11034;48.556;9.342;2023-04-24T11:41:37;1.60;;;1.00;;
21743;SDS011;11034;48.556;9.342;2023-04-24T11:44:06;2.03;;;1.20;;
21743;SDS011;11034;48.556;9.342;2023-04-24T11:46:35;3.00;;;1.20;;
21743;SDS011;11034;48.556;9.342;2023-04-24T11:49:06;2.15;;;1.17;;
21743;SDS011;11034;48.556;9.342;2023-04-24T11:51:34;2.15;;;1.20;;
21743;SDS011;11034;48.556;9.342;2023-04-24T11:54:20;1.73;;;1.33;;
21743;SDS011;11034;48.556;9.342;2023-04-24T11:56:49;1.98;;;1.20;;
21743;SDS011;11034;48.556;9.342;2023-04-24T11:59:17;1.90;;;1.15;;
21743;SDS011;11034;48.556;9.342;2023-04-24T12:01:45;1.65;;;1.00;;
21743;SDS011;11034;48.556;9.342;2023-04-24T12:04:13;3.53;;;1.30;;
21743;SDS011;11034;48.556;9.342;2023-04-24T12:09:32;2.20;;;1.17;;
21743;SDS011;11034;48.556;9.342;2023-04-24T12:12:08;1.85;;;1.00;;
21743;SDS011;11034;48.556;9.342;2023-04-24T12:14:42;3.05;;;1.30;;
21743;SDS011;11034;48.556;9.342;2023-04-24T12:17:24;2.50;;;1.10;;
21743;SDS011;11034;48.556;9.342;2023-04-24T12:19:57;1.60;;;1.00;;
21743;SDS011;11034;48.556;9.342;2023-04-24T12:22:27;1.85;;;1.10;;
21743;SDS011;11034;48.556;9.342;2023-04-24T12:24:58;2.30;;;1.10;;
21743;SDS011;11034;48.556;9.342;2023-04-24T12:27:29;3.88;;;1.20;;
21743;SDS011;11034;48.556;9.342;2023-04-24T12:29:58;1.98;;;1.30;;
21743;SDS011;11034;48.556;9.342;2023-04-24T12:32:27;2.80;;;1.10;;
21743;SDS011;11034;48.556;9.342;2023-04-24T12:34:58;4.35;;;2.28;;
21743;SDS011;11034;48.556;9.342;2023-04-24T12:37:26;1.23;;;1.00;;
21743;SDS011;11034;48.556;9.342;2023-04-24T12:40:05;2.55;;;1.13;;
21743;SDS011;11034;48.556;9.342;2023-04-24T12:42:35;3.10;;;1.00;;
21743;SDS011;11034;48.556;9.342;2023-04-24T12:45:04;1.77;;;1.00;;
21743;SDS011;11034;48.556;9.342;2023-04-24T12:47:34;2.42;;;0.95;;
21743;SDS011;11034;48.556;9.342;2023-04-24T12:50:03;1.73;;;1.05;;
21743;SDS011;11034;48.556;9.342;2023-04-24T12:52:32;1.00;;;0.90;;
21743;SDS011;11034;48.556;9.342;2023-04-24T12:55:00;1.20;;;1.10;;
21743;SDS011;11034;48.556;9.342;2023-04-24T12:57:30;1.63;;;1.00;;
21743;SDS011;11034;48.556;9.342;2023-04-24T12:59:58;1.95;;;1.20;;
21743;SDS011;11034;48.556;9.342;2023-04-24T13:02:27;1.00;;;0.90;;
21743;SDS011;11034;48.556;9.342;2023-04-24T13:04:57;1.98;;;1.13;;
21743;SDS011;11034;48.556;9.342;2023-04-24T13:07:25;2.33;;;1.40;;
21743;SDS011;11034;48.556;9.342;2023-04-24T13:09:54;3.00;;;1.35;;
21743;SDS011;11034;48.556;9.342;2023-04-24T13:12:23;3.33;;;1.38;;
21743;SDS011;11034;48.556;9.342;2023-04-24T13:14:53;3.72;;;1.50;;
21743;SDS011;11034;48.556;9.342;2023-04-24T13:17:22;3.80;;;1.35;;
21743;SDS011;11034;48.556;9.342;2023-04-24T13:19:50;2.40;;;1.20;;
21743;SDS011;11034;48.556;9.342;2023-04-24T13:22:18;2.10;;;1.67;;
21743;SDS011;11034;48.556;9.342;2023-04-24T13:24:47;1.55;;;1.20;;
21743;SDS011;11034;48.556;9.342;2023-04-24T13:27:15;3.72;;;1.33;;
21743;SDS011;11034;48.556;9.342;2023-04-24T13:29:44;2.30;;;1.30;;
21743;SDS011;11034;48.556;9.342;2023-04-24T13:32:13;2.60;;;1.27;;
21743;SDS011;11034;48.556;9.342;2023-04-24T13:34:42;3.03;;;1.42;;
21743;SDS011;11034;48.556;9.342;2023-04-24T13:37:10;3.15;;;1.60;;
21743;SDS011;11034;48.556;9.342;2023-04-24T13:39:38;1.52;;;1.30;;
21743;SDS011;11034;48.556;9.342;2023-04-24T13:42:08;2.40;;;1.70;;
21743;SDS011;11034;48.556;9.342;2023-04-24T13:44:38;2.83;;;1.20;;
21743;SDS011;11034;48.556;9.342;2023-04-24T13:47:06;2.70;;;1.50;;
21743;SDS011;11034;48.556;9.342;2023-04-24T13:49:35;2.97;;;1.20;;
21743;SDS011;11034;48.556;9.342;2023-04-24T13:52:03;2.78;;;1.55;;
21743;SDS011;11034;48.556;9.342;2023-04-24T13:54:31;1.90;;;1.25;;
21743;SDS011;11034;48.556;9.342;2023-04-24T13:56:59;4.03;;;1.60;;
21743;SDS011;11034;48.556;9.342;2023-04-24T13:59:29;3.65;;;1.58;;
21743;SDS011;11034;48.556;9.342;2023-04-24T14:01:57;3.30;;;1.40;;
21743;SDS011;11034;48.556;9.342;2023-04-24T14:04:25;3.08;;;1.40;;
21743;SDS011;11034;48.556;9.342;2023-04-24T14:06:55;1.75;;;1.35;;
21743;SDS011;11034;48.556;9.342;2023-04-24T14:09:23;2.40;;;1.52;;
21743;SDS011;11034;48.556;9.342;2023-04-24T14:11:51;3.22;;;1.38;;
21743;SDS011;11034;48.556;9.342;2023-04-24T14:14:19;3.45;;;1.40;;
21743;SDS011;11034;48.556;9.342;2023-04-24T14:16:47;3.38;;;1.30;;
21743;SDS011;11034;48.556;9.342;2023-04-24T14:19:15;2.45;;;1.30;;
21743;SDS011;11034;48.556;9.342;2023-04-24T14:21:43;2.58;;;1.50;;
21743;SDS011;11034;48.556;9.342;2023-04-24T14:24:13;1.55;;;1.27;;
21743;SDS011;11034;48.556;9.342;2023-04-24T14:26:41;2.97;;;1.30;;
21743;SDS011;11034;48.556;9.342;2023-04-24T14:29:09;2.90;;;1.38;;
21743;SDS011;11034;48.556;9.342;2023-04-24T14:31:40;3.20;;;1.30;;
21743;SDS011;11034;48.556;9.342;2023-04-24T14:34:09;2.47;;;1.38;;
21743;SDS011;11034;48.556;9.342;2023-04-24T14:36:37;2.72;;;1.70;;
21743;SDS011;11034;48.556;9.342;2023-04-24T14:39:05;3.08;;;1.42;;
21743;SDS011;11034;48.556;9.342;2023-04-24T14:41:35;1.60;;;1.48;;
21743;SDS011;11034;48.556;9.342;2023-04-24T14:44:05;4.25;;;1.30;;
21743;SDS011;11034;48.556;9.342;2023-04-24T14:46:33;2.78;;;1.20;;
21743;SDS011;11034;48.556;9.342;2023-04-24T14:49:01;2.90;;;1.40;;
21743;SDS011;11034;48.556;9.342;2023-04-24T14:51:29;2.97;;;1.50;;
21743;SDS011;11034;48.556;9.342;2023-04-24T14:53:58;2.70;;;1.45;;
21743;SDS011;11034;48.556;9.342;2023-04-24T14:56:26;2.13;;;1.30;;
21743;SDS011;11034;48.556;9.342;2023-04-24T14:58:55;2.80;;;1.80;;
21743;SDS011;11034;48.556;9.342;2023-04-24T15:01:23;2.53;;;1.52;;
21743;SDS011;11034;48.556;9.342;2023-04-24T15:03:52;2.95;;;1.67;;
21743;SDS011;11034;48.556;9.342;2023-04-24T15:06:20;3.03;;;1.50;;
21743;SDS011;11034;48.556;9.342;2023-04-24T15:08:48;2.53;;;1.40;;
21743;SDS011;11034;48.556;9.342;2023-04-24T15:11:16;2.20;;;1.48;;